Aviation Digital Data Service (ADDS)

Output produced by METARs form (1637 UTC 16 June 2019)
found at http://www.aviationweather.gov/metar/data/
 
Forecast for: EFMA (MARIEHAMN/ALAND , FI)
Text: TAF EFMA 161432Z 1615/1624 21010KT CAVOK
Forecast period: 1500 UTC 16 June 2019 to 0000 UTC 17 June 2019
Forecast type: FROM: standard forecast or significant change
Winds: from the SSW (210 degrees) at 12 MPH (10 knots; 5.1 m/s)
Visibility: 6 or more miles 10+ km)
Ceiling: unknown
Clouds: missing
Weather: NSW  (no significant weather)